Time;durP1;ratioP1;P1;durP2;ratioP2;P2;SDS_P1;SDS_P2;PMS_P1;PMS_P2;Temp;Humidity;BMP_temperature;BMP_pressure;BME280_temperature;BME280_humidity;BME280_pressure;Samples;Min_cycle;Max_cycle;Signal;HPM_P1;HPM_P2
2021/12/26 00:01:58;;;;;;;2.23;1.57;;;-5.20;99.90;;;;;;5049796;28;20936;-44
2021/12/26 00:04:24;;;;;;;6.33;1.47;;;-5.00;99.90;;;;;;5071189;27;20210;-44
2021/12/26 00:06:51;;;;;;;1.90;1.50;;;-5.00;99.90;;;;;;5083538;28;20187;-44
2021/12/26 00:09:18;;;;;;;2.37;1.60;;;-5.00;99.90;;;;;;5072802;28;20299;-44
2021/12/26 00:11:45;;;;;;;2.33;1.50;;;-5.10;99.90;;;;;;5077297;28;20192;-44
2021/12/26 00:14:12;;;;;;;3.40;1.57;;;-5.10;99.90;;;;;;5078219;28;20215;-44
2021/12/26 00:16:42;;;;;;;4.87;1.80;;;-5.10;99.90;;;;;;5055411;28;20705;-44
2021/12/26 00:19:09;;;;;;;2.73;1.60;;;-5.10;99.90;;;;;;5075210;28;20204;-44
2021/12/26 00:21:36;;;;;;;1.60;1.50;;;-5.20;99.90;;;;;;5073195;28;20210;-36
2021/12/26 00:24:03;;;;;;;2.30;1.57;;;-5.20;99.90;;;;;;5069270;28;20259;-36
2021/12/26 00:26:32;;;;;;;1.33;1.20;;;-5.20;99.90;;;;;;5079905;28;20219;-36
2021/12/26 00:28:59;;;;;;;5.77;1.90;;;-5.20;99.90;;;;;;5083318;28;20333;-36
2021/12/26 00:31:27;;;;;;;3.33;1.63;;;-5.20;99.90;;;;;;5064475;28;20210;-37
2021/12/26 00:33:55;;;;;;;4.03;2.27;;;-5.20;99.90;;;;;;5075087;28;20223;-36
2021/12/26 00:36:22;;;;;;;3.13;2.13;;;-5.30;99.90;;;;;;5067303;28;20223;-36
2021/12/26 00:38:49;;;;;;;4.57;1.70;;;-5.20;99.90;;;;;;5073770;28;21017;-36
2021/12/26 00:41:16;;;;;;;6.73;1.93;;;-5.30;99.90;;;;;;5074486;28;20851;-36
2021/12/26 00:43:43;;;;;;;3.20;1.83;;;-5.40;99.90;;;;;;5072918;28;20855;-36
2021/12/26 00:46:10;;;;;;;3.80;1.60;;;-5.40;99.90;;;;;;5082974;28;20223;-36
2021/12/26 00:48:37;;;;;;;2.13;1.80;;;-5.40;99.90;;;;;;5062063;28;20211;-36
2021/12/26 00:51:05;;;;;;;2.60;1.83;;;-5.50;99.90;;;;;;5067467;28;20705;-36
2021/12/26 00:53:33;;;;;;;5.90;1.77;;;-5.50;99.90;;;;;;5065259;28;20219;-36
2021/12/26 00:56:00;;;;;;;2.43;1.90;;;-5.70;99.90;;;;;;5072297;28;20224;-36
2021/12/26 00:58:27;;;;;;;4.00;2.00;;;-5.60;99.90;;;;;;5080311;28;20195;-36
2021/12/26 01:00:54;;;;;;;3.07;1.60;;;-5.60;99.90;;;;;;5075828;28;20192;-36
2021/12/26 01:03:21;;;;;;;3.13;1.90;;;-5.60;99.90;;;;;;5064268;28;20212;-36
2021/12/26 01:05:52;;;;;;;3.40;1.83;;;-5.50;99.90;;;;;;5076376;28;20230;-36
2021/12/26 01:08:25;;;;;;;2.37;1.50;;;-5.50;99.90;;;;;;5065382;28;20219;-37
2021/12/26 01:10:56;;;;;;;2.80;1.80;;;-5.40;99.90;;;;;;5062493;28;20208;-36
2021/12/26 01:13:29;;;;;;;2.97;1.93;;;-5.40;99.90;;;;;;5083594;28;20236;-37
2021/12/26 01:15:59;;;;;;;5.17;1.70;;;-5.30;99.90;;;;;;5081628;28;20259;-37
2021/12/26 01:18:28;;;;;;;5.73;2.00;;;-5.30;99.90;;;;;;5071434;28;20819;-36
2021/12/26 01:21:00;;;;;;;5.27;1.90;;;-5.40;99.90;;;;;;5079734;28;20346;-36
2021/12/26 01:23:30;;;;;;;3.40;1.93;;;-5.40;99.90;;;;;;5066947;28;20199;-36
2021/12/26 01:25:57;;;;;;;2.17;1.80;;;-5.50;99.90;;;;;;5065224;28;20237;-36
2021/12/26 01:28:28;;;;;;;2.90;1.60;;;-5.40;99.90;;;;;;5074547;28;20192;-36
2021/12/26 01:30:55;;;;;;;1.70;1.50;;;-5.40;99.90;;;;;;5084458;28;20702;-36
2021/12/26 01:33:22;;;;;;;4.70;1.77;;;-5.40;99.90;;;;;;5080329;28;20231;-36
2021/12/26 01:35:49;;;;;;;1.90;1.43;;;-5.50;99.90;;;;;;5064798;28;20613;-36
2021/12/26 01:38:17;;;;;;;1.93;1.70;;;-5.50;99.90;;;;;;5061735;28;20214;-36
2021/12/26 01:40:50;;;;;;;4.43;2.40;;;-5.50;99.90;;;;;;5075669;28;20234;-36
2021/12/26 01:43:18;;;;;;;2.43;1.60;;;-5.60;99.90;;;;;;5071711;28;20576;-36
2021/12/26 01:45:47;;;;;;;2.60;1.77;;;-5.60;99.90;;;;;;5084916;28;20305;-36
2021/12/26 01:48:15;;;;;;;4.27;2.07;;;-5.80;99.90;;;;;;5079919;28;20194;-36
2021/12/26 01:50:43;;;;;;;3.67;1.60;;;-5.70;99.90;;;;;;5064577;28;20298;-37
2021/12/26 01:53:10;;;;;;;1.43;1.33;;;-5.70;99.90;;;;;;5076535;28;20195;-37
2021/12/26 01:55:41;;;;;;;2.60;1.60;;;-5.60;99.90;;;;;;5077091;28;20232;-37
2021/12/26 01:58:13;;;;;;;5.13;2.23;;;-5.60;99.90;;;;;;5066896;28;20208;-36
2021/12/26 02:00:43;;;;;;;5.27;2.27;;;-5.50;99.90;;;;;;5073454;28;20203;-37
2021/12/26 02:03:10;;;;;;;2.90;1.57;;;-5.60;99.90;;;;;;5085111;28;20292;-36
2021/12/26 02:05:38;;;;;;;6.03;1.70;;;-5.60;99.90;;;;;;5081277;27;20223;-37
2021/12/26 02:08:07;;;;;;;2.63;1.83;;;-5.60;99.90;;;;;;5064655;28;20214;-37
2021/12/26 02:10:34;;;;;;;6.67;1.87;;;-5.60;99.90;;;;;;5079424;28;20765;-37
2021/12/26 02:13:02;;;;;;;2.07;1.50;;;-5.60;99.90;;;;;;5068357;28;20332;-36
2021/12/26 02:15:31;;;;;;;2.30;1.70;;;-5.60;99.90;;;;;;5083113;27;20225;-36
2021/12/26 02:17:58;;;;;;;3.13;1.80;;;-5.60;99.90;;;;;;5084456;28;20203;-36
2021/12/26 02:20:37;;;;;;;2.50;1.70;;;-5.70;99.90;;;;;;5080637;28;20195;-37
2021/12/26 02:23:10;;;;;;;3.03;1.87;;;-5.70;99.90;;;;;;5063150;28;20973;-37
2021/12/26 02:28:19;;;;;;;8.77;2.50;;;-5.60;99.90;;;;;;5034198;28;20205;-37
2021/12/26 02:30:48;;;;;;;2.93;1.87;;;-5.70;99.90;;;;;;5069013;28;20214;-37
2021/12/26 02:33:16;;;;;;;2.20;1.70;;;-5.80;99.90;;;;;;5075704;28;20207;-37
2021/12/26 02:35:45;;;;;;;5.57;2.00;;;-5.60;99.90;;;;;;5080274;28;20219;-37
2021/12/26 02:38:14;;;;;;;5.53;2.00;;;-5.70;99.90;;;;;;5061805;28;20284;-44
2021/12/26 02:40:43;;;;;;;3.63;1.93;;;-5.70;99.90;;;;;;5081049;28;20742;-43
2021/12/26 02:43:13;;;;;;;4.30;2.10;;;-5.70;99.90;;;;;;5059052;28;20217;-44
2021/12/26 02:45:39;;;;;;;3.00;1.70;;;-5.80;99.90;;;;;;5084607;28;20727;-44
2021/12/26 02:48:09;;;;;;;3.60;1.83;;;-5.80;99.90;;;;;;5068562;28;20217;-44
2021/12/26 02:50:38;;;;;;;4.73;2.20;;;-5.80;99.90;;;;;;5081882;28;20199;-45
2021/12/26 02:53:08;;;;;;;2.70;2.27;;;-5.80;99.90;;;;;;5062325;28;20859;-45
2021/12/26 02:55:35;;;;;;;2.17;1.90;;;-5.70;99.90;;;;;;5065376;28;20236;-44
2021/12/26 02:58:05;;;;;;;2.00;1.70;;;-5.80;99.90;;;;;;5075061;28;20208;-43
2021/12/26 03:00:36;;;;;;;3.50;2.13;;;-5.90;99.90;;;;;;5066023;28;20203;-44
2021/12/26 03:03:06;;;;;;;2.60;1.80;;;-5.90;99.90;;;;;;5075263;28;20218;-44
2021/12/26 03:05:35;;;;;;;3.40;1.63;;;-5.90;99.90;;;;;;5073311;28;20229;-44
2021/12/26 03:08:02;;;;;;;2.90;1.80;;;-5.90;99.90;;;;;;5078094;28;20203;-44
2021/12/26 03:10:31;;;;;;;3.27;2.07;;;-5.90;99.90;;;;;;5065271;28;20216;-45
2021/12/26 03:13:00;;;;;;;3.00;1.83;;;-5.80;99.90;;;;;;5073851;28;20214;-44
2021/12/26 03:15:29;;;;;;;3.80;2.53;;;-5.90;99.90;;;;;;5067859;28;20311;-44
2021/12/26 03:17:56;;;;;;;3.20;2.00;;;-5.80;99.90;;;;;;5085141;28;20210;-44
2021/12/26 03:20:26;;;;;;;4.40;1.87;;;-5.90;99.90;;;;;;5065600;28;20200;-44
2021/12/26 03:22:53;;;;;;;2.70;2.00;;;-5.90;99.90;;;;;;5079111;28;20210;-44
2021/12/26 03:25:22;;;;;;;2.10;1.90;;;-5.90;99.90;;;;;;5065005;28;20722;-44
2021/12/26 03:27:51;;;;;;;3.10;2.30;;;-5.90;99.90;;;;;;5074427;28;20202;-36
2021/12/26 03:30:21;;;;;;;4.10;1.90;;;-5.90;99.90;;;;;;5068767;28;20207;-36
2021/12/26 03:32:49;;;;;;;5.17;1.73;;;-5.90;99.90;;;;;;5075064;28;20199;-36
2021/12/26 03:38:38;;;;;;;5.40;1.97;;;-5.80;99.90;;;;;;5073819;28;20240;-36
2021/12/26 03:41:06;;;;;;;3.30;1.83;;;-5.90;99.90;;;;;;5060565;28;20210;-36
2021/12/26 03:43:34;;;;;;;3.30;2.10;;;-6.00;99.90;;;;;;5058971;28;20211;-36
2021/12/26 03:46:02;;;;;;;4.00;2.00;;;-6.00;99.90;;;;;;5070313;28;21291;-36
2021/12/26 03:48:29;;;;;;;2.87;1.90;;;-6.00;99.90;;;;;;5078041;28;20589;-36
2021/12/26 03:50:57;;;;;;;3.07;1.80;;;-5.90;99.90;;;;;;5079472;28;20207;-36
2021/12/26 03:53:25;;;;;;;5.60;1.90;;;-6.00;99.90;;;;;;5070585;28;20234;-36
2021/12/26 03:55:52;;;;;;;2.83;1.90;;;-5.80;99.90;;;;;;5058386;28;21685;-36
2021/12/26 03:58:19;;;;;;;4.47;2.33;;;-5.80;99.90;;;;;;5070377;28;20204;-38
2021/12/26 04:00:49;;;;;;;2.33;1.80;;;-5.90;99.90;;;;;;5066394;28;20207;-36
2021/12/26 04:03:16;;;;;;;2.87;1.77;;;-5.90;99.90;;;;;;5087497;28;20206;-36
2021/12/26 04:05:44;;;;;;;4.03;1.83;;;-5.90;99.90;;;;;;5070795;28;20224;-36
2021/12/26 04:08:11;;;;;;;2.83;2.03;;;-6.00;99.90;;;;;;5077257;28;20214;-36
2021/12/26 04:10:38;;;;;;;4.47;2.20;;;-6.10;99.90;;;;;;5078571;28;20223;-36
2021/12/26 04:13:06;;;;;;;2.43;1.80;;;-6.00;99.90;;;;;;5066972;28;20208;-36
2021/12/26 04:15:33;;;;;;;3.43;2.00;;;-6.00;99.90;;;;;;5072079;28;20230;-36
2021/12/26 04:18:02;;;;;;;2.50;1.87;;;-6.00;99.90;;;;;;5069319;28;20202;-36
2021/12/26 04:20:30;;;;;;;3.07;2.23;;;-6.00;99.90;;;;;;5069800;28;20234;-36
2021/12/26 04:22:58;;;;;;;2.50;1.87;;;-6.00;99.90;;;;;;5078310;28;20208;-36
2021/12/26 04:25:25;;;;;;;3.03;1.77;;;-5.90;99.90;;;;;;5072240;28;20229;-36
2021/12/26 04:27:52;;;;;;;2.17;1.80;;;-5.90;99.90;;;;;;5053504;28;20365;-36
2021/12/26 04:30:21;;;;;;;2.73;2.07;;;-5.80;99.90;;;;;;5073666;28;20292;-36
2021/12/26 04:32:48;;;;;;;2.90;2.00;;;-5.80;99.90;;;;;;5068037;28;20286;-36
2021/12/26 04:35:17;;;;;;;4.40;2.37;;;-5.90;99.90;;;;;;5079139;28;20229;-36
2021/12/26 04:37:45;;;;;;;5.27;2.23;;;-5.90;99.90;;;;;;5069526;28;20205;-36
2021/12/26 04:40:14;;;;;;;3.17;2.00;;;-5.80;99.90;;;;;;5078613;28;20204;-36
2021/12/26 04:42:44;;;;;;;9.03;2.40;;;-6.00;99.90;;;;;;5078122;28;20207;-36
2021/12/26 04:45:11;;;;;;;2.93;1.93;;;-6.00;99.90;;;;;;5051184;28;20233;-37
2021/12/26 04:47:38;;;;;;;4.13;2.40;;;-6.00;99.90;;;;;;5070774;28;20220;-37
2021/12/26 04:50:07;;;;;;;3.33;1.87;;;-6.00;99.90;;;;;;5080064;28;20967;-36
2021/12/26 04:52:36;;;;;;;2.67;1.80;;;-5.90;99.90;;;;;;5077032;28;20204;-37
2021/12/26 04:55:05;;;;;;;5.13;2.10;;;-5.90;99.90;;;;;;5085759;28;20281;-36
2021/12/26 04:57:32;;;;;;;4.60;2.17;;;-5.90;99.90;;;;;;5083702;28;20198;-37
2021/12/26 04:59:59;;;;;;;6.63;2.13;;;-5.90;99.90;;;;;;5064394;28;20237;-37
2021/12/26 05:02:28;;;;;;;3.97;1.97;;;-5.80;99.90;;;;;;5063681;28;20214;-44
2021/12/26 05:04:55;;;;;;;5.80;2.20;;;-5.90;99.90;;;;;;5086310;27;20214;-45
2021/12/26 05:07:22;;;;;;;4.13;1.83;;;-5.90;99.90;;;;;;5073915;28;20203;-44
2021/12/26 05:09:50;;;;;;;3.93;2.03;;;-5.90;99.90;;;;;;5085164;28;20235;-44
2021/12/26 05:12:17;;;;;;;5.87;1.83;;;-6.00;99.90;;;;;;5073188;28;20199;-40
2021/12/26 05:14:43;;;;;;;3.50;2.00;;;-6.10;99.90;;;;;;5067138;28;20233;-40
2021/12/26 05:17:10;;;;;;;3.37;1.90;;;-6.00;99.90;;;;;;5070252;28;20208;-39
2021/12/26 05:19:38;;;;;;;3.73;1.83;;;-5.90;99.90;;;;;;5087443;28;20290;-40
2021/12/26 05:22:05;;;;;;;3.67;1.90;;;-5.90;99.90;;;;;;5071725;28;20200;-40
2021/12/26 05:24:32;;;;;;;2.80;1.70;;;-5.90;99.90;;;;;;5081774;28;20220;-40
2021/12/26 05:27:00;;;;;;;2.13;1.70;;;-5.90;99.90;;;;;;5074661;28;20745;-43
2021/12/26 05:29:27;;;;;;;2.53;1.90;;;-5.90;99.90;;;;;;5081122;28;21977;-39
2021/12/26 05:31:54;;;;;;;2.50;1.70;;;-5.90;99.90;;;;;;5058007;28;20208;-38
2021/12/26 05:34:21;;;;;;;3.87;2.10;;;-6.00;99.90;;;;;;5063513;28;20205;-38
2021/12/26 05:36:48;;;;;;;5.83;1.80;;;-6.10;99.90;;;;;;5079942;28;20206;-44
2021/12/26 05:39:15;;;;;;;3.43;1.83;;;-6.10;99.90;;;;;;5071437;28;20202;-39
2021/12/26 05:41:42;;;;;;;3.87;2.10;;;-6.10;99.90;;;;;;5079033;28;20684;-39
2021/12/26 05:44:10;;;;;;;3.57;2.33;;;-6.10;99.90;;;;;;5080817;28;20193;-35
2021/12/26 05:46:38;;;;;;;2.27;1.70;;;-6.00;99.90;;;;;;5065636;28;20760;-36
2021/12/26 05:49:05;;;;;;;8.97;2.10;;;-6.00;99.90;;;;;;5066478;28;20204;-38
2021/12/26 05:51:32;;;;;;;4.37;1.70;;;-6.00;99.90;;;;;;5073824;28;20203;-35
2021/12/26 05:53:59;;;;;;;3.97;2.13;;;-6.00;99.90;;;;;;5069294;28;20301;-35
2021/12/26 05:56:26;;;;;;;5.20;1.97;;;-6.00;99.90;;;;;;5068774;28;20223;-38
2021/12/26 05:58:53;;;;;;;2.73;1.70;;;-6.00;99.90;;;;;;5079761;28;20673;-38
2021/12/26 06:01:21;;;;;;;4.90;1.90;;;-6.00;99.90;;;;;;5059619;28;20308;-36
2021/12/26 06:03:48;;;;;;;1.93;1.57;;;-5.90;99.90;;;;;;5069647;28;20205;-43
2021/12/26 06:06:15;;;;;;;3.27;1.80;;;-5.90;99.90;;;;;;5068845;28;20601;-38
2021/12/26 06:08:42;;;;;;;3.80;1.77;;;-5.90;99.90;;;;;;5077141;28;20585;-39
2021/12/26 06:11:09;;;;;;;3.53;1.90;;;-6.00;99.90;;;;;;5073596;28;20202;-38
2021/12/26 06:13:35;;;;;;;3.13;1.97;;;-6.00;99.90;;;;;;5082175;28;20210;-43
2021/12/26 06:16:02;;;;;;;2.70;1.57;;;-6.00;99.90;;;;;;5061697;28;21451;-43
2021/12/26 06:18:31;;;;;;;2.63;1.93;;;-6.10;99.90;;;;;;5085629;28;20199;-43
2021/12/26 06:20:57;;;;;;;2.13;1.53;;;-6.20;99.90;;;;;;5061944;28;20242;-38
2021/12/26 06:23:24;;;;;;;2.47;1.83;;;-6.10;99.90;;;;;;5083540;28;20207;-39
2021/12/26 06:25:51;;;;;;;2.20;1.77;;;-6.20;99.90;;;;;;5064236;28;20235;-38
2021/12/26 06:28:18;;;;;;;4.93;1.97;;;-6.20;99.90;;;;;;5085470;28;20205;-38
2021/12/26 06:30:45;;;;;;;3.60;1.90;;;-6.10;99.90;;;;;;5076320;28;20225;-39
2021/12/26 06:33:12;;;;;;;4.10;1.70;;;-6.10;99.90;;;;;;5060640;28;20211;-38
2021/12/26 06:35:40;;;;;;;4.93;1.80;;;-6.20;99.90;;;;;;5080553;27;20233;-39
2021/12/26 06:38:07;;;;;;;2.73;1.50;;;-6.10;99.90;;;;;;5071660;28;20791;-38
2021/12/26 06:40:34;;;;;;;4.10;1.80;;;-6.00;99.90;;;;;;5068925;28;20217;-38
2021/12/26 06:43:00;;;;;;;2.23;1.40;;;-6.10;99.90;;;;;;5081371;28;20192;-38
2021/12/26 06:45:28;;;;;;;1.63;1.47;;;-6.00;99.90;;;;;;5082142;27;20212;-39
2021/12/26 06:47:56;;;;;;;3.23;1.50;;;-6.00;99.90;;;;;;5056056;28;20293;-39
2021/12/26 06:50:23;;;;;;;1.73;1.30;;;-6.10;99.90;;;;;;5077123;28;20809;-39
2021/12/26 06:52:51;;;;;;;2.90;1.97;;;-6.00;99.90;;;;;;5064643;28;20215;-39
2021/12/26 06:55:18;;;;;;;3.47;1.80;;;-6.00;99.90;;;;;;5065183;28;20227;-36
2021/12/26 06:57:45;;;;;;;2.87;1.70;;;-6.10;99.90;;;;;;5073947;28;20196;-44
2021/12/26 07:00:15;;;;;;;1.70;1.40;;;-6.20;99.90;;;;;;5081171;28;20507;-37
2021/12/26 07:02:42;;;;;;;5.03;1.67;;;-6.30;99.90;;;;;;5047191;28;20212;-37
2021/12/26 07:05:11;;;;;;;2.77;1.80;;;-6.30;99.90;;;;;;5057513;28;20226;-38
2021/12/26 07:07:38;;;;;;;1.43;1.17;;;-6.30;99.90;;;;;;5052514;28;21940;-40
2021/12/26 07:10:07;;;;;;;1.90;1.53;;;-6.30;99.90;;;;;;5082349;28;20576;-39
2021/12/26 07:12:35;;;;;;;3.03;1.63;;;-6.40;99.90;;;;;;5056860;28;20212;-40
2021/12/26 07:15:02;;;;;;;2.43;1.70;;;-6.30;99.90;;;;;;5064890;28;20230;-39
2021/12/26 07:17:28;;;;;;;2.00;1.67;;;-6.30;99.90;;;;;;5072836;28;20345;-39
2021/12/26 07:19:55;;;;;;;3.03;1.70;;;-6.20;99.90;;;;;;5059553;28;20583;-40
2021/12/26 07:22:22;;;;;;;1.80;1.37;;;-6.20;99.90;;;;;;5055914;28;20211;-40
2021/12/26 07:24:49;;;;;;;1.67;1.33;;;-6.10;99.90;;;;;;5069459;28;20230;-39
2021/12/26 07:27:18;;;;;;;3.20;1.77;;;-6.20;99.90;;;;;;5066372;28;20998;-44
2021/12/26 07:29:45;;;;;;;1.30;1.17;;;-6.10;99.90;;;;;;5077027;28;20731;-44
2021/12/26 07:32:12;;;;;;;3.33;1.40;;;-6.20;99.90;;;;;;5064849;28;20208;-36
2021/12/26 07:34:40;;;;;;;2.13;1.77;;;-6.10;99.90;;;;;;5058642;28;20211;-39
2021/12/26 07:37:07;;;;;;;2.57;1.57;;;-6.10;99.90;;;;;;5060396;28;20239;-39
2021/12/26 07:39:33;;;;;;;1.73;1.30;;;-6.10;99.90;;;;;;5056827;28;20662;-39
2021/12/26 07:42:00;;;;;;;2.30;1.90;;;-6.00;99.90;;;;;;5063967;28;20206;-44
2021/12/26 07:44:29;;;;;;;3.53;1.90;;;-6.00;99.90;;;;;;5075591;28;20202;-39
2021/12/26 07:46:56;;;;;;;2.07;1.53;;;-6.00;99.90;;;;;;5065335;27;20210;-39
2021/12/26 07:49:24;;;;;;;3.07;1.60;;;-6.10;99.90;;;;;;5059445;28;20898;-36
2021/12/26 07:51:51;;;;;;;2.07;1.57;;;-6.10;99.90;;;;;;5075257;28;20206;-39
2021/12/26 07:54:21;;;;;;;1.43;1.23;;;-6.00;99.90;;;;;;5053128;28;20759;-39
2021/12/26 07:56:48;;;;;;;1.50;1.40;;;-6.10;99.90;;;;;;5069395;28;20221;-39
2021/12/26 07:59:15;;;;;;;1.30;1.20;;;-6.10;99.90;;;;;;5071256;28;20196;-36
2021/12/26 08:01:43;;;;;;;3.50;1.40;;;-6.00;99.90;;;;;;5064939;28;20215;-36
2021/12/26 08:04:11;;;;;;;2.07;1.60;;;-6.00;99.90;;;;;;5073410;28;20861;-36
2021/12/26 08:06:38;;;;;;;3.30;1.80;;;-6.00;99.90;;;;;;5060562;28;20227;-36
2021/12/26 08:09:06;;;;;;;2.70;1.80;;;-6.00;99.90;;;;;;5067344;28;20209;-43
2021/12/26 08:11:33;;;;;;;4.30;2.00;;;-6.00;99.90;;;;;;5056777;28;20223;-43
2021/12/26 08:14:00;;;;;;;3.33;2.20;;;-6.00;99.90;;;;;;5065393;28;20206;-43
2021/12/26 08:16:28;;;;;;;3.33;2.20;;;-5.90;99.90;;;;;;5063337;28;20270;-41
2021/12/26 08:18:57;;;;;;;7.67;2.67;;;-5.80;99.90;;;;;;5061305;28;20895;-38
2021/12/26 08:21:24;;;;;;;4.90;2.80;;;-5.90;99.90;;;;;;5044484;28;20302;-45
2021/12/26 08:23:51;;;;;;;4.50;2.17;;;-5.90;99.90;;;;;;5068411;28;20198;-40
2021/12/26 08:26:18;;;;;;;2.13;1.80;;;-6.00;99.90;;;;;;5044695;28;20722;-38
2021/12/26 08:28:45;;;;;;;7.97;2.27;;;-5.90;99.90;;;;;;5057460;28;20220;-38
2021/12/26 08:31:14;;;;;;;2.83;1.97;;;-5.80;99.90;;;;;;5078606;28;20219;-39
2021/12/26 08:33:41;;;;;;;3.87;2.30;;;-5.70;99.90;;;;;;5066173;28;20234;-39
2021/12/26 08:36:09;;;;;;;2.97;1.87;;;-5.70;99.90;;;;;;5061840;28;20722;-39
2021/12/26 08:38:38;;;;;;;2.97;1.83;;;-5.70;99.90;;;;;;5089300;28;20299;-39
2021/12/26 08:41:04;;;;;;;1.90;1.60;;;-5.70;99.90;;;;;;5071926;27;20295;-39
2021/12/26 08:43:31;;;;;;;2.83;1.63;;;-5.50;99.90;;;;;;5057517;28;20219;-39
2021/12/26 08:45:59;;;;;;;1.97;1.70;;;-5.50;99.90;;;;;;5066454;28;20222;-39
2021/12/26 08:48:26;;;;;;;2.47;1.80;;;-5.50;99.90;;;;;;5059821;28;20226;-39
2021/12/26 08:50:55;;;;;;;2.73;1.90;;;-5.50;99.90;;;;;;5072480;28;20753;-39
2021/12/26 08:53:25;;;;;;;3.30;1.90;;;-5.40;99.90;;;;;;5060782;28;20219;-39
2021/12/26 08:55:53;;;;;;;4.23;1.53;;;-5.30;99.90;;;;;;5060420;28;20241;-39
2021/12/26 08:58:20;;;;;;;5.60;2.20;;;-5.30;99.90;;;;;;5049222;28;20258;-39
2021/12/26 09:00:47;;;;;;;2.07;1.47;;;-5.20;99.90;;;;;;5068775;28;20208;-39
2021/12/26 09:03:14;;;;;;;2.90;1.87;;;-5.20;99.90;;;;;;5073841;28;20203;-39
2021/12/26 09:05:41;;;;;;;1.87;1.33;;;-5.20;99.90;;;;;;5064703;28;20218;-44
2021/12/26 09:08:10;;;;;;;1.83;1.53;;;-5.00;99.90;;;;;;5061823;28;20585;-45
2021/12/26 09:10:39;;;;;;;2.17;1.67;;;-5.00;99.90;;;;;;5072163;28;20211;-45
2021/12/26 09:13:06;;;;;;;3.30;1.67;;;-5.00;99.90;;;;;;5037779;28;20208;-45
2021/12/26 09:15:33;;;;;;;2.90;1.63;;;-4.90;99.90;;;;;;5059062;28;20227;-44
2021/12/26 09:18:01;;;;;;;1.90;1.43;;;-4.90;99.90;;;;;;5062646;28;20211;-45
2021/12/26 09:20:28;;;;;;;2.00;1.57;;;-4.80;99.90;;;;;;5063547;28;20308;-45
2021/12/26 09:22:56;;;;;;;2.63;1.67;;;-4.80;99.90;;;;;;5059806;28;20222;-45
2021/12/26 09:25:24;;;;;;;1.40;1.30;;;-4.70;99.90;;;;;;5079482;28;20222;-45
2021/12/26 09:27:53;;;;;;;2.53;1.40;;;-4.70;99.90;;;;;;5054508;28;20219;-44
2021/12/26 09:30:20;;;;;;;3.43;1.90;;;-4.60;99.90;;;;;;5068193;28;20203;-45
2021/12/26 09:32:47;;;;;;;2.03;1.80;;;-4.60;99.90;;;;;;5073563;28;20218;-45
2021/12/26 09:35:14;;;;;;;3.93;1.97;;;-4.50;99.90;;;;;;5074598;28;20218;-45
2021/12/26 09:37:43;;;;;;;5.40;2.00;;;-4.50;99.90;;;;;;5062932;28;20247;-45
2021/12/26 09:40:12;;;;;;;2.53;1.70;;;-4.50;99.90;;;;;;5079392;28;20202;-45
2021/12/26 09:42:39;;;;;;;1.60;1.40;;;-4.40;99.90;;;;;;5063956;28;20214;-45
2021/12/26 09:45:09;;;;;;;2.50;1.93;;;-4.40;99.90;;;;;;5045549;28;20220;-45
2021/12/26 09:47:36;;;;;;;3.50;1.80;;;-4.30;99.90;;;;;;5066243;28;20200;-44
2021/12/26 09:50:05;;;;;;;3.60;1.83;;;-4.30;99.90;;;;;;5053465;28;20842;-44
2021/12/26 09:52:32;;;;;;;4.60;1.93;;;-4.30;99.90;;;;;;5039488;28;23092;-44
2021/12/26 09:55:00;;;;;;;5.10;2.53;;;-4.30;99.90;;;;;;5073845;28;20234;-44
2021/12/26 09:57:28;;;;;;;2.50;2.00;;;-4.20;99.90;;;;;;5066763;28;20420;-45
2021/12/26 09:59:55;;;;;;;2.27;1.80;;;-4.20;99.90;;;;;;5052634;28;20930;-45
2021/12/26 10:02:23;;;;;;;3.80;1.90;;;-4.20;99.90;;;;;;5058861;28;20252;-39
2021/12/26 10:04:52;;;;;;;2.40;1.90;;;-4.20;99.90;;;;;;5065323;28;20230;-39
2021/12/26 10:07:21;;;;;;;2.90;1.90;;;-4.20;99.90;;;;;;5076912;28;20252;-39
2021/12/26 10:09:50;;;;;;;2.63;1.90;;;-4.20;99.90;;;;;;5056929;27;20207;-39
2021/12/26 10:12:20;;;;;;;2.40;1.57;;;-4.20;99.90;;;;;;5079597;28;20191;-39
2021/12/26 10:14:49;;;;;;;3.13;1.50;;;-4.10;99.90;;;;;;5049805;27;20228;-39
2021/12/26 10:17:23;;;;;;;2.77;1.80;;;-4.00;99.90;;;;;;5062425;28;20955;-39
2021/12/26 10:19:54;;;;;;;3.63;1.80;;;-4.00;99.90;;;;;;5070963;27;20678;-39
2021/12/26 10:22:25;;;;;;;2.50;2.00;;;-4.00;99.90;;;;;;5072662;28;20314;-40
2021/12/26 10:24:54;;;;;;;4.27;2.00;;;-3.90;99.90;;;;;;5052920;28;20932;-40
2021/12/26 10:27:23;;;;;;;2.40;1.90;;;-3.90;99.90;;;;;;5073555;28;20204;-40
2021/12/26 10:29:52;;;;;;;2.93;1.80;;;-3.90;99.90;;;;;;5044734;28;20250;-44
2021/12/26 10:32:22;;;;;;;2.47;1.80;;;-3.80;99.90;;;;;;5054956;28;20219;-40
2021/12/26 10:34:53;;;;;;;3.37;2.10;;;-3.70;99.90;;;;;;5064439;27;20239;-45
2021/12/26 10:37:23;;;;;;;1.90;1.67;;;-3.70;99.90;;;;;;5071850;27;20809;-36
2021/12/26 10:39:52;;;;;;;4.63;2.20;;;-3.70;99.90;;;;;;5067755;28;20581;-37
2021/12/26 10:42:21;;;;;;;4.20;2.13;;;-3.70;99.90;;;;;;5078637;27;20679;-37
2021/12/26 10:44:51;;;;;;;5.30;2.87;;;-3.50;99.90;;;;;;5061273;28;20220;-40
2021/12/26 10:47:20;;;;;;;6.70;2.77;;;-3.50;99.90;;;;;;5060948;28;20213;-39
2021/12/26 10:49:51;;;;;;;5.27;2.70;;;-3.40;99.90;;;;;;5077275;28;20206;-40
2021/12/26 10:52:25;;;;;;;4.33;2.10;;;-3.40;99.90;;;;;;5071077;28;20224;-40
2021/12/26 10:54:56;;;;;;;5.70;2.83;;;-3.40;99.90;;;;;;5077786;28;20216;-39
2021/12/26 10:57:25;;;;;;;3.30;2.83;;;-3.30;99.90;;;;;;5060482;28;20223;-37
2021/12/26 11:00:15;;;;;;;2.27;1.90;;;-3.30;99.90;;;;;;5068881;28;20206;-37
2021/12/26 11:02:45;;;;;;;3.53;1.90;;;-3.20;99.90;;;;;;5049750;28;20730;-40
2021/12/26 11:05:15;;;;;;;3.90;2.17;;;-3.20;99.90;;;;;;5063252;28;21085;-40
2021/12/26 11:07:52;;;;;;;2.90;1.70;;;-3.10;99.90;;;;;;5083354;28;20200;-40
2021/12/26 11:10:23;;;;;;;4.27;2.47;;;-3.00;99.90;;;;;;5058312;28;20219;-40
2021/12/26 11:12:53;;;;;;;7.63;2.00;;;-3.00;99.90;;;;;;5035300;28;21922;-39
2021/12/26 11:15:25;;;;;;;4.87;2.00;;;-2.80;99.90;;;;;;5052771;28;20226;-39
2021/12/26 11:17:55;;;;;;;2.30;1.77;;;-2.70;99.90;;;;;;5027976;28;20240;-39
2021/12/26 11:20:33;;;;;;;4.00;1.63;;;-2.70;99.90;;;;;;5064898;28;20405;-45
2021/12/26 11:23:09;;;;;;;3.73;1.90;;;-2.70;99.90;;;;;;5062485;28;20863;-45
2021/12/26 11:25:41;;;;;;;5.67;2.23;;;-2.60;99.90;;;;;;5077802;28;20642;-45
2021/12/26 11:28:08;;;;;;;6.57;2.63;;;-2.70;99.90;;;;;;5056448;28;21130;-39
2021/12/26 11:30:35;;;;;;;3.70;2.03;;;-2.60;99.90;;;;;;5072866;28;20210;-39
2021/12/26 11:33:04;;;;;;;3.40;1.90;;;-2.60;99.90;;;;;;5047825;28;21542;-39
2021/12/26 11:35:32;;;;;;;2.80;1.97;;;-2.60;99.90;;;;;;5041275;28;20240;-39
2021/12/26 11:38:02;;;;;;;3.37;2.10;;;-2.60;99.90;;;;;;5059633;28;20221;-40
2021/12/26 11:40:30;;;;;;;4.43;1.60;;;-2.60;99.90;;;;;;5063377;28;20232;-39
2021/12/26 11:43:25;;;;;;;3.77;2.30;;;-2.50;99.90;;;;;;5052038;28;20211;-40
2021/12/26 11:46:00;;;;;;;5.27;1.97;;;-2.50;99.90;;;;;;5075070;28;20213;-40
2021/12/26 11:48:47;;;;;;;2.77;1.87;;;-2.50;99.90;;;;;;5050768;28;20204;-40
2021/12/26 11:51:34;;;;;;;2.37;1.73;;;-2.50;99.90;;;;;;5062542;28;20263;-41
2021/12/26 11:54:36;;;;;;;5.30;2.27;;;-2.50;99.90;;;;;;5081330;28;20202;-40
2021/12/26 11:57:18;;;;;;;1.80;1.60;;;-2.40;99.90;;;;;;5059838;28;20230;-38
2021/12/26 12:00:10;;;;;;;2.77;2.00;;;-2.40;99.90;;;;;;5047225;28;20240;-38
2021/12/26 12:02:41;;;;;;;3.00;1.90;;;-2.30;99.90;;;;;;5048129;28;20212;-35
2021/12/26 12:05:14;;;;;;;4.17;2.33;;;-2.30;99.90;;;;;;5063611;28;20231;-35
2021/12/26 12:07:55;;;;;;;4.10;3.23;;;-2.30;99.90;;;;;;5074589;28;20206;-38
2021/12/26 12:10:34;;;;;;;2.43;2.00;;;-2.00;99.90;;;;;;5071173;28;20221;-43
2021/12/26 12:13:02;;;;;;;3.03;1.83;;;-2.10;99.90;;;;;;5068839;28;20198;-43
2021/12/26 12:15:53;;;;;;;3.03;1.83;;;-2.10;99.90;;;;;;5053633;28;20230;-39
2021/12/26 12:18:23;;;;;;;3.50;2.00;;;-2.10;99.90;;;;;;5047050;28;20223;-39
2021/12/26 12:21:08;;;;;;;2.20;1.80;;;-2.00;99.90;;;;;;5041981;28;20214;-36
2021/12/26 12:23:36;;;;;;;3.50;2.13;;;-2.10;99.90;;;;;;5059036;28;20225;-43
2021/12/26 12:26:03;;;;;;;3.23;2.17;;;-2.00;99.90;;;;;;5069828;28;21032;-38
2021/12/26 12:28:33;;;;;;;3.20;2.07;;;-2.00;99.90;;;;;;5057223;28;20579;-38
2021/12/26 12:31:20;;;;;;;3.27;1.83;;;-2.00;99.90;;;;;;5051436;28;20212;-39
2021/12/26 12:34:01;;;;;;;5.30;1.60;;;-2.00;99.90;;;;;;5058386;28;20203;-36
2021/12/26 12:36:30;;;;;;;3.47;1.77;;;-2.00;99.90;;;;;;5060900;28;20589;-44
2021/12/26 12:39:14;;;;;;;3.03;1.80;;;-1.90;99.90;;;;;;5053913;28;20223;-43
2021/12/26 12:41:43;;;;;;;3.10;1.60;;;-1.90;99.90;;;;;;5071348;28;20774;-44
2021/12/26 12:44:28;;;;;;;2.67;1.90;;;-1.70;99.90;;;;;;5062138;28;20222;-36
2021/12/26 12:47:06;;;;;;;2.70;1.83;;;-1.70;99.90;;;;;;5056895;28;21639;-39
2021/12/26 12:49:46;;;;;;;2.47;1.83;;;-1.70;99.90;;;;;;5060658;28;20209;-38
2021/12/26 12:52:38;;;;;;;5.27;2.63;;;-1.80;99.90;;;;;;5049200;28;20223;-38
2021/12/26 12:55:05;;;;;;;5.03;3.10;;;-1.80;99.90;;;;;;5053478;28;20925;-38
2021/12/26 12:57:35;;;;;;;4.10;3.30;;;-1.70;99.90;;;;;;5066085;28;20234;-36
2021/12/26 13:00:05;;;;;;;3.87;3.03;;;-1.80;99.90;;;;;;5062715;28;20285;-36
2021/12/26 13:02:37;;;;;;;5.10;2.80;;;-1.80;99.90;;;;;;5035468;28;20208;-36
2021/12/26 13:05:06;;;;;;;2.40;1.90;;;-1.80;99.90;;;;;;5044619;28;20232;-36